Time;durP1;ratioP1;P1;durP2;ratioP2;P2;SDS_P1;SDS_P2;PMS_P1;PMS_P2;Temp;Humidity;BMP_temperature;BMP_pressure;BME280_temperature;BME280_humidity;BME280_pressure;Samples;Min_cycle;Max_cycle;Signal;HPM_P1;HPM_P2
2022/06/04 00:02:02;;;;;;;5.40;4.50;;;13.10;99.90;;;;;;5035490;28;20240;-66
2022/06/04 00:04:30;;;;;;;4.83;4.37;;;13.10;99.90;;;;;;5035222;28;20301;-66
2022/06/04 00:06:59;;;;;;;4.83;4.20;;;13.00;99.90;;;;;;5035410;28;20237;-66
2022/06/04 00:09:27;;;;;;;5.10;4.37;;;13.10;99.90;;;;;;5034097;28;20224;-66
2022/06/04 00:17:29;;;;;;;5.60;4.37;;;13.00;99.90;;;;;;5035248;28;20703;-66
2022/06/04 00:19:57;;;;;;;5.60;5.10;;;13.00;99.90;;;;;;5033592;28;20244;-66
2022/06/04 00:22:25;;;;;;;5.17;4.63;;;12.90;99.90;;;;;;5035278;28;20298;-66
2022/06/04 00:24:53;;;;;;;5.40;4.30;;;12.90;99.90;;;;;;5035240;28;20232;-66
2022/06/04 00:27:23;;;;;;;7.27;4.60;;;12.90;99.90;;;;;;5035414;28;20243;-66
2022/06/04 00:29:52;;;;;;;4.93;4.17;;;12.90;99.90;;;;;;5033577;28;20595;-66
2022/06/04 00:32:20;;;;;;;5.23;4.73;;;12.90;99.90;;;;;;5034945;28;20221;-66
2022/06/04 00:34:48;;;;;;;6.53;4.97;;;12.90;99.90;;;;;;5035085;28;20778;-66
2022/06/04 00:37:16;;;;;;;9.17;5.13;;;12.80;99.90;;;;;;5035124;28;20235;-66
2022/06/04 00:39:45;;;;;;;8.90;4.77;;;12.80;99.90;;;;;;5033820;28;20224;-66
2022/06/04 00:42:16;;;;;;;7.43;4.40;;;12.80;99.90;;;;;;5034867;28;20235;-66
2022/06/04 00:45:24;;;;;;;5.33;4.77;;;12.70;99.90;;;;;;5027380;28;20228;-66
2022/06/04 00:47:54;;;;;;;5.90;4.73;;;12.70;99.90;;;;;;5034689;28;20315;-66
2022/06/04 00:50:23;;;;;;;6.47;5.00;;;12.70;99.90;;;;;;5033445;28;20228;-66
2022/06/04 00:52:55;;;;;;;5.97;4.73;;;12.60;99.90;;;;;;5034654;28;20270;-66
2022/06/04 00:55:23;;;;;;;5.50;5.00;;;12.60;99.90;;;;;;5032655;28;20227;-66
2022/06/04 00:58:09;;;;;;;6.10;5.27;;;12.50;99.90;;;;;;5034377;28;20228;-66
2022/06/04 01:00:42;;;;;;;6.60;5.87;;;12.50;99.90;;;;;;5033104;28;20228;-66
2022/06/04 01:03:28;;;;;;;8.43;5.43;;;12.40;99.90;;;;;;5033961;28;20776;-66
2022/06/04 01:06:09;;;;;;;7.10;5.63;;;12.40;99.90;;;;;;5034882;28;20713;-66
2022/06/04 01:09:10;;;;;;;6.67;5.90;;;12.40;99.90;;;;;;5034743;28;20575;-66
2022/06/04 01:12:12;;;;;;;7.57;5.67;;;12.20;99.90;;;;;;5034274;28;20282;-66
2022/06/04 01:14:55;;;;;;;7.57;6.37;;;12.20;99.90;;;;;;5034705;28;20625;-66
2022/06/04 01:17:32;;;;;;;8.43;6.30;;;12.20;99.90;;;;;;5033991;28;20587;-66
2022/06/04 01:20:17;;;;;;;10.30;6.60;;;12.10;99.90;;;;;;5030882;28;20270;-66
2022/06/04 01:23:09;;;;;;;7.70;6.10;;;12.10;99.90;;;;;;5033058;28;20578;-66
2022/06/04 01:25:59;;;;;;;7.57;6.37;;;12.10;99.90;;;;;;5024193;28;20690;-66
2022/06/04 01:28:31;;;;;;;8.43;6.73;;;12.10;99.90;;;;;;5034202;28;20229;-66
2022/06/04 01:31:06;;;;;;;7.80;6.67;;;12.10;99.90;;;;;;5031679;28;20643;-66
2022/06/04 01:33:39;;;;;;;7.27;6.03;;;12.10;99.90;;;;;;5032809;28;20228;-66
2022/06/04 01:36:16;;;;;;;9.77;7.13;;;12.10;99.90;;;;;;5034308;28;20231;-66
2022/06/04 01:38:48;;;;;;;8.33;6.23;;;12.00;99.90;;;;;;5033620;28;20269;-66
2022/06/04 01:41:23;;;;;;;9.07;6.60;;;12.00;99.90;;;;;;5023596;28;20610;-66
2022/06/04 01:43:55;;;;;;;7.63;6.30;;;12.00;99.90;;;;;;5033952;28;20277;-66
2022/06/04 01:46:28;;;;;;;8.27;6.43;;;12.00;99.90;;;;;;5033890;28;20227;-66
2022/06/04 01:49:08;;;;;;;8.20;7.10;;;11.90;99.90;;;;;;5031830;28;20220;-66
2022/06/04 01:51:38;;;;;;;7.67;6.70;;;11.90;99.90;;;;;;5033223;28;20567;-66
2022/06/04 01:54:12;;;;;;;11.30;6.97;;;11.90;99.90;;;;;;5033845;28;20230;-66
2022/06/04 01:56:47;;;;;;;9.07;6.83;;;11.90;99.90;;;;;;5033811;28;20230;-66
2022/06/04 01:59:20;;;;;;;8.27;7.00;;;11.80;99.90;;;;;;5029467;28;20230;-66
2022/06/04 02:01:52;;;;;;;9.97;6.23;;;11.80;99.90;;;;;;5033136;28;20238;-66
2022/06/04 02:04:24;;;;;;;8.17;6.77;;;11.70;99.90;;;;;;5048125;28;20241;-66
2022/06/04 02:09:41;;;;;;;7.97;7.17;;;11.70;99.90;;;;;;5049788;28;20250;-66
2022/06/04 02:12:13;;;;;;;9.00;7.40;;;11.60;99.90;;;;;;5053442;28;20706;-66
2022/06/04 02:14:43;;;;;;;8.17;6.83;;;11.60;99.90;;;;;;5056673;28;20264;-66
2022/06/04 02:17:14;;;;;;;8.43;7.20;;;11.60;99.90;;;;;;5056594;28;20245;-66
2022/06/04 02:19:42;;;;;;;8.07;6.30;;;11.50;99.90;;;;;;5049716;28;20273;-66
2022/06/04 02:22:11;;;;;;;9.97;7.80;;;11.60;99.90;;;;;;5053073;28;20236;-66
2022/06/04 02:24:40;;;;;;;10.37;7.40;;;11.60;99.90;;;;;;5065098;28;20621;-66
2022/06/04 02:27:09;;;;;;;8.70;7.27;;;11.50;99.90;;;;;;5073237;28;20232;-66
2022/06/04 02:29:40;;;;;;;8.80;7.83;;;11.50;99.90;;;;;;5053153;28;20717;-66
2022/06/04 02:32:16;;;;;;;10.83;6.90;;;11.50;99.90;;;;;;5052692;28;20254;-66
2022/06/04 02:34:55;;;;;;;10.37;7.37;;;11.50;99.90;;;;;;5049644;28;20235;-66
2022/06/04 02:37:28;;;;;;;8.50;7.23;;;11.50;99.90;;;;;;5053393;28;20309;-66
2022/06/04 02:40:02;;;;;;;9.67;7.17;;;11.40;99.90;;;;;;5031159;28;20264;-66
2022/06/04 02:42:35;;;;;;;8.10;7.30;;;11.40;99.90;;;;;;5032690;28;20310;-66
2022/06/04 02:45:11;;;;;;;9.27;7.37;;;11.30;99.90;;;;;;5036180;28;20323;-66
2022/06/04 02:47:43;;;;;;;11.03;7.63;;;11.30;99.90;;;;;;5032898;28;20240;-66
2022/06/04 02:50:18;;;;;;;9.43;7.70;;;11.30;99.90;;;;;;5029240;28;20226;-66
2022/06/04 02:52:48;;;;;;;10.33;7.87;;;11.20;99.90;;;;;;5031615;28;20616;-66
2022/06/04 02:55:20;;;;;;;8.53;7.60;;;11.20;99.90;;;;;;5048959;28;20590;-66
2022/06/04 02:57:55;;;;;;;13.20;7.60;;;11.20;99.90;;;;;;5053255;28;20610;-66
2022/06/04 03:00:27;;;;;;;9.50;7.90;;;11.10;99.90;;;;;;5027171;28;20273;-65
2022/06/04 03:02:55;;;;;;;8.57;7.47;;;11.10;99.90;;;;;;5034355;28;20295;-65
2022/06/04 03:05:27;;;;;;;9.17;7.53;;;11.10;99.90;;;;;;5052747;28;20257;-66
2022/06/04 03:08:04;;;;;;;8.77;7.83;;;11.10;99.90;;;;;;5051755;28;20279;-66
2022/06/04 03:10:35;;;;;;;8.93;7.90;;;11.10;99.90;;;;;;5049084;28;20226;-66
2022/06/04 03:13:04;;;;;;;7.80;7.03;;;11.10;99.90;;;;;;5046964;28;20685;-66
2022/06/04 03:15:33;;;;;;;8.23;7.43;;;11.10;99.90;;;;;;5052353;28;20225;-66
2022/06/04 03:18:02;;;;;;;7.87;7.07;;;11.10;99.90;;;;;;5046172;28;20222;-65
2022/06/04 03:20:30;;;;;;;9.80;7.50;;;11.10;99.90;;;;;;5048468;28;20226;-66
2022/06/04 03:22:58;;;;;;;9.67;7.27;;;11.10;99.90;;;;;;5052696;28;20234;-66
2022/06/04 03:25:26;;;;;;;10.70;7.93;;;11.00;99.90;;;;;;5052358;28;20308;-66
2022/06/04 03:27:54;;;;;;;9.83;8.10;;;11.10;99.90;;;;;;5052163;28;20230;-66
2022/06/04 03:30:29;;;;;;;8.30;7.47;;;11.00;99.90;;;;;;5049415;28;20715;-66
2022/06/04 03:32:58;;;;;;;8.90;7.50;;;11.00;99.90;;;;;;5051424;28;20238;-66
2022/06/04 03:35:27;;;;;;;11.27;7.20;;;11.00;99.90;;;;;;5032305;28;20287;-66
2022/06/04 03:37:55;;;;;;;10.30;7.67;;;11.00;99.90;;;;;;5032257;28;20237;-66
2022/06/04 03:40:23;;;;;;;10.43;8.10;;;11.00;99.90;;;;;;5026912;28;20704;-66
2022/06/04 03:42:51;;;;;;;9.60;7.90;;;11.10;99.90;;;;;;5038193;28;20230;-66
2022/06/04 03:45:19;;;;;;;10.90;7.47;;;11.20;99.90;;;;;;5041949;28;20269;-66
2022/06/04 03:47:48;;;;;;;10.97;8.67;;;11.20;99.90;;;;;;5046212;28;20706;-66
2022/06/04 03:50:18;;;;;;;9.40;7.93;;;11.30;99.90;;;;;;5033337;28;20222;-66
2022/06/04 03:52:48;;;;;;;10.70;8.33;;;11.30;99.90;;;;;;5052333;28;20227;-66
2022/06/04 03:55:18;;;;;;;9.33;8.03;;;11.30;99.90;;;;;;5032661;28;20242;-66
2022/06/04 03:57:48;;;;;;;9.03;7.70;;;11.40;99.90;;;;;;5031731;28;20305;-66
2022/06/04 04:00:20;;;;;;;9.63;8.13;;;11.50;99.90;;;;;;5035624;28;20233;-66
2022/06/04 04:02:50;;;;;;;10.57;8.53;;;11.50;99.90;;;;;;5051748;28;20268;-65
2022/06/04 04:05:22;;;;;;;9.97;8.37;;;11.50;99.90;;;;;;5051932;28;20228;-66
2022/06/04 04:07:51;;;;;;;12.83;7.97;;;11.50;99.90;;;;;;5051984;28;20293;-66
2022/06/04 04:10:19;;;;;;;10.23;8.60;;;11.50;99.90;;;;;;5036990;28;20234;-66
2022/06/04 04:12:48;;;;;;;9.73;8.73;;;11.50;99.90;;;;;;5036876;28;20215;-66
2022/06/04 04:15:16;;;;;;;10.47;8.97;;;11.50;99.90;;;;;;5051040;28;20242;-66
2022/06/04 04:17:44;;;;;;;10.60;8.87;;;11.50;99.90;;;;;;5052120;28;20236;-66
2022/06/04 04:20:18;;;;;;;10.13;8.93;;;11.50;99.90;;;;;;5043357;28;20296;-66
2022/06/04 04:22:49;;;;;;;11.70;8.10;;;11.50;99.90;;;;;;5054815;28;20312;-66
2022/06/04 04:25:20;;;;;;;9.47;8.17;;;11.60;99.90;;;;;;5055413;28;20250;-66
2022/06/04 04:27:48;;;;;;;12.80;9.07;;;11.60;99.90;;;;;;5048140;28;20227;-66
2022/06/04 04:30:19;;;;;;;11.27;9.07;;;11.70;99.90;;;;;;5036672;28;20234;-66
2022/06/04 04:32:47;;;;;;;10.07;8.90;;;11.70;99.90;;;;;;5054808;28;20223;-66
2022/06/04 04:35:19;;;;;;;10.83;8.30;;;11.70;99.90;;;;;;5035945;28;20238;-66
2022/06/04 04:37:49;;;;;;;10.13;8.10;;;11.80;99.90;;;;;;5035799;28;20650;-66
2022/06/04 04:40:20;;;;;;;10.17;8.47;;;11.80;99.90;;;;;;5036553;28;20233;-66
2022/06/04 04:42:49;;;;;;;10.47;7.90;;;11.90;99.90;;;;;;5043642;28;20230;-66
2022/06/04 04:45:19;;;;;;;10.67;8.47;;;11.90;99.90;;;;;;5055165;28;20700;-66
2022/06/04 04:47:48;;;;;;;12.17;8.90;;;11.90;99.90;;;;;;5055314;28;20644;-66
2022/06/04 04:50:20;;;;;;;9.53;8.43;;;11.80;99.90;;;;;;5043982;28;20239;-66
2022/06/04 04:52:51;;;;;;;9.30;8.03;;;11.90;99.90;;;;;;5042200;28;20701;-66
2022/06/04 04:55:19;;;;;;;10.63;7.87;;;12.00;99.90;;;;;;5052088;28;20604;-66
2022/06/04 04:57:48;;;;;;;10.70;8.47;;;12.00;99.90;;;;;;5043274;28;20577;-66
2022/06/04 05:00:19;;;;;;;10.80;8.40;;;12.00;99.90;;;;;;5035937;28;20226;-66
2022/06/04 05:02:47;;;;;;;10.23;8.23;;;12.00;99.90;;;;;;5054282;28;20757;-66
2022/06/04 05:05:15;;;;;;;9.73;7.90;;;12.10;99.90;;;;;;5054919;28;20264;-66
2022/06/04 05:07:44;;;;;;;10.17;8.10;;;12.20;99.90;;;;;;5055008;28;21024;-66
2022/06/04 05:10:15;;;;;;;10.63;8.47;;;12.20;99.90;;;;;;5030768;28;20258;-66
2022/06/04 05:12:44;;;;;;;10.60;8.03;;;12.20;99.90;;;;;;5037704;28;20226;-66
2022/06/04 05:15:12;;;;;;;10.80;8.60;;;12.30;99.90;;;;;;5049963;28;20222;-66
2022/06/04 05:17:41;;;;;;;10.43;8.13;;;12.30;99.90;;;;;;5014780;28;20722;-66
2022/06/04 05:20:10;;;;;;;9.90;8.23;;;12.40;99.90;;;;;;5030521;28;20787;-66
2022/06/04 05:22:38;;;;;;;10.97;8.53;;;12.50;99.90;;;;;;5039880;28;20739;-66
2022/06/04 05:25:07;;;;;;;10.27;8.20;;;12.60;99.90;;;;;;5054109;28;20262;-66
2022/06/04 05:27:37;;;;;;;11.67;8.23;;;12.60;99.90;;;;;;5046757;28;20237;-66
2022/06/04 05:30:06;;;;;;;11.63;7.87;;;12.70;99.90;;;;;;5037799;28;20223;-65
2022/06/04 05:32:34;;;;;;;11.60;8.50;;;12.80;99.90;;;;;;5052935;28;20312;-65
2022/06/04 05:35:02;;;;;;;10.27;8.50;;;12.80;99.90;;;;;;5036399;28;20326;-65
2022/06/04 05:37:30;;;;;;;10.03;8.30;;;12.90;99.90;;;;;;5034060;28;20705;-65
2022/06/04 05:40:04;;;;;;;8.97;7.90;;;13.10;99.90;;;;;;5033200;28;20330;-65
2022/06/04 05:42:32;;;;;;;9.37;8.33;;;13.20;99.90;;;;;;5036726;28;20274;-65
2022/06/04 05:45:02;;;;;;;9.90;8.40;;;13.50;99.90;;;;;;5042992;28;20234;-65
2022/06/04 05:47:30;;;;;;;10.53;8.63;;;13.60;99.90;;;;;;5053883;28;20317;-65
2022/06/04 05:49:58;;;;;;;9.87;7.97;;;13.90;99.90;;;;;;5047236;28;20250;-65
2022/06/04 05:52:27;;;;;;;10.17;8.70;;;14.20;99.90;;;;;;5033967;28;20223;-65
2022/06/04 05:54:55;;;;;;;11.03;8.37;;;14.40;99.90;;;;;;5024566;28;20737;-66
2022/06/04 05:57:24;;;;;;;13.13;8.80;;;14.60;99.90;;;;;;5022438;28;20224;-66
2022/06/04 05:59:53;;;;;;;9.20;8.13;;;14.70;99.90;;;;;;5022291;28;20228;-66
2022/06/04 06:02:23;;;;;;;9.67;8.63;;;14.90;99.90;;;;;;5027585;28;20278;-66
2022/06/04 06:04:51;;;;;;;11.70;8.30;;;15.00;99.90;;;;;;5053313;28;20640;-65
2022/06/04 06:07:19;;;;;;;12.67;8.87;;;15.00;99.90;;;;;;5053330;28;20268;-65
2022/06/04 06:09:47;;;;;;;11.20;8.57;;;14.90;99.90;;;;;;5036813;28;20233;-66
2022/06/04 06:12:15;;;;;;;10.80;8.90;;;15.00;99.90;;;;;;5040859;28;20287;-66
2022/06/04 06:14:43;;;;;;;10.73;9.17;;;15.20;99.90;;;;;;5047624;28;20224;-66
2022/06/04 06:17:11;;;;;;;11.73;9.70;;;15.30;99.90;;;;;;5042482;28;20767;-65
2022/06/04 06:19:41;;;;;;;10.77;8.00;;;15.60;99.90;;;;;;5044634;28;20277;-65
2022/06/04 06:22:09;;;;;;;11.47;8.77;;;16.20;99.90;;;;;;5048898;28;20239;-66
2022/06/04 06:24:37;;;;;;;9.47;8.40;;;16.40;99.90;;;;;;5053350;28;20286;-66
2022/06/04 06:27:08;;;;;;;10.50;9.13;;;16.80;99.90;;;;;;5029715;28;20225;-66
2022/06/04 06:29:37;;;;;;;11.47;9.17;;;16.40;99.90;;;;;;5032708;28;20734;-66
2022/06/04 06:32:07;;;;;;;13.27;9.13;;;16.10;99.90;;;;;;5043444;28;20565;-66
2022/06/04 06:34:35;;;;;;;9.20;8.30;;;15.90;99.90;;;;;;5038927;28;20635;-66
2022/06/04 06:37:05;;;;;;;9.40;8.43;;;16.00;99.90;;;;;;5032913;28;20232;-66
2022/06/04 06:39:33;;;;;;;10.17;8.50;;;15.90;99.90;;;;;;5033845;28;20225;-66
2022/06/04 06:42:01;;;;;;;10.07;8.97;;;16.20;99.90;;;;;;5036161;28;20225;-66
2022/06/04 06:44:45;;;;;;;9.33;8.33;;;16.70;99.90;;;;;;5043191;28;20684;-66
2022/06/04 06:47:13;;;;;;;10.10;9.00;;;17.00;99.90;;;;;;5013106;28;20637;-66
2022/06/04 06:49:43;;;;;;;10.67;8.37;;;17.10;99.90;;;;;;5032816;28;20219;-66
2022/06/04 06:52:16;;;;;;;10.20;8.13;;;17.20;99.90;;;;;;5049308;28;20220;-66
2022/06/04 06:54:44;;;;;;;11.53;8.03;;;17.50;99.90;;;;;;5037421;28;20263;-66
2022/06/04 06:57:17;;;;;;;9.10;7.43;;;17.90;99.90;;;;;;5032568;28;20228;-66
2022/06/04 06:59:47;;;;;;;9.60;7.47;;;18.10;99.90;;;;;;5038735;28;20306;-66
2022/06/04 07:02:15;;;;;;;10.03;8.00;;;18.10;99.90;;;;;;5049932;28;20247;-66
2022/06/04 07:04:43;;;;;;;9.17;7.80;;;17.80;99.90;;;;;;5052664;28;20319;-66
2022/06/04 07:07:13;;;;;;;8.73;7.60;;;17.90;99.90;;;;;;5052465;28;20229;-66
2022/06/04 07:09:45;;;;;;;10.97;7.27;;;17.70;99.90;;;;;;5037747;28;20680;-66
2022/06/04 07:12:13;;;;;;;9.07;7.47;;;17.80;99.90;;;;;;5037338;28;20251;-66
2022/06/04 07:14:41;;;;;;;8.53;7.23;;;18.00;99.90;;;;;;5038380;28;20226;-66
2022/06/04 07:17:10;;;;;;;9.27;6.67;;;18.30;99.90;;;;;;5031707;28;20229;-66
2022/06/04 07:19:38;;;;;;;9.90;7.27;;;18.80;99.90;;;;;;5029226;28;20239;-66
2022/06/04 07:22:07;;;;;;;7.50;6.77;;;19.10;99.90;;;;;;5052168;28;20264;-66
2022/06/04 07:24:36;;;;;;;8.03;7.20;;;19.60;99.90;;;;;;5046944;28;20226;-66
2022/06/04 07:27:05;;;;;;;9.43;7.10;;;19.50;99.90;;;;;;5047390;28;20243;-66
2022/06/04 07:29:34;;;;;;;10.73;7.20;;;19.10;99.90;;;;;;5043067;28;20694;-66
2022/06/04 07:32:03;;;;;;;11.27;7.43;;;18.50;99.90;;;;;;5040998;28;20232;-66
2022/06/04 07:34:31;;;;;;;8.70;7.50;;;18.30;99.90;;;;;;5048934;28;20660;-66
2022/06/04 07:37:00;;;;;;;8.73;7.10;;;18.40;99.90;;;;;;5052140;28;20244;-66
2022/06/04 07:39:28;;;;;;;8.90;6.63;;;18.40;99.90;;;;;;5036853;28;20222;-66
2022/06/04 07:41:57;;;;;;;7.57;6.27;;;18.70;99.90;;;;;;5037521;28;20219;-66
2022/06/04 07:44:27;;;;;;;8.20;6.30;;;19.50;99.90;;;;;;5047919;28;20230;-66
2022/06/04 07:46:58;;;;;;;9.87;6.93;;;19.40;99.90;;;;;;5052572;28;20318;-66
2022/06/04 07:49:26;;;;;;;6.13;5.37;;;19.60;99.90;;;;;;5040060;28;20241;-66
2022/06/04 07:51:55;;;;;;;7.00;5.93;;;20.00;99.90;;;;;;5051656;28;20701;-66
2022/06/04 07:54:24;;;;;;;8.57;5.47;;;20.20;99.90;;;;;;5041216;28;20224;-66
2022/06/04 07:56:54;;;;;;;7.17;5.80;;;20.40;99.90;;;;;;5034315;28;20232;-66
2022/06/04 07:59:24;;;;;;;8.40;5.97;;;20.80;99.90;;;;;;5030419;28;20224;-66
2022/06/04 08:01:53;;;;;;;7.23;6.30;;;21.10;99.90;;;;;;5055777;28;20575;-66
2022/06/04 08:04:21;;;;;;;6.90;6.20;;;21.20;99.90;;;;;;5055403;28;20252;-66
2022/06/04 08:06:50;;;;;;;7.90;5.90;;;21.10;99.90;;;;;;5056143;28;20223;-66
2022/06/04 08:09:18;;;;;;;7.00;5.80;;;21.00;99.90;;;;;;5038855;28;20242;-66
2022/06/04 08:11:47;;;;;;;8.73;5.93;;;21.10;99.90;;;;;;5052057;28;20579;-66
2022/06/04 08:14:19;;;;;;;7.33;5.77;;;21.60;99.90;;;;;;5048962;28;20264;-66
2022/06/04 08:16:52;;;;;;;6.73;5.67;;;22.10;99.90;;;;;;5016143;28;20236;-66
2022/06/04 08:19:22;;;;;;;7.17;5.70;;;22.30;99.90;;;;;;5015928;28;20247;-66
2022/06/04 08:21:51;;;;;;;6.23;5.37;;;22.50;99.90;;;;;;5053133;28;20707;-66
2022/06/04 08:24:21;;;;;;;7.23;5.40;;;22.50;99.90;;;;;;5050755;28;20234;-66
2022/06/04 08:26:53;;;;;;;7.30;5.50;;;22.50;99.90;;;;;;5055973;28;20224;-66
2022/06/04 08:29:22;;;;;;;5.53;5.10;;;22.50;99.90;;;;;;5044712;28;20241;-66
2022/06/04 08:31:51;;;;;;;6.00;4.67;;;22.80;99.90;;;;;;5051166;28;20227;-66
2022/06/04 08:34:19;;;;;;;7.07;5.03;;;22.50;99.90;;;;;;5045193;28;20236;-66
2022/06/04 08:36:47;;;;;;;5.90;5.03;;;22.50;99.90;;;;;;5033993;28;20224;-66
2022/06/04 08:39:16;;;;;;;5.70;5.10;;;22.20;99.90;;;;;;5033912;28;20227;-66
2022/06/04 08:41:56;;;;;;;6.10;5.50;;;22.40;99.90;;;;;;5031150;28;20234;-66
2022/06/04 08:44:29;;;;;;;5.40;4.90;;;22.60;99.90;;;;;;5026230;28;20233;-66
2022/06/04 08:47:06;;;;;;;5.87;5.07;;;22.90;99.90;;;;;;5032526;28;20240;-66
2022/06/04 08:49:39;;;;;;;6.33;5.70;;;23.40;99.90;;;;;;5024106;28;20840;-66
2022/06/04 08:52:13;;;;;;;5.73;5.13;;;23.30;99.90;;;;;;5029175;28;20228;-66
2022/06/04 08:57:34;;;;;;;6.40;5.10;;;23.90;99.90;;;;;;5054936;28;20228;-66
2022/06/04 09:00:10;;;;;;;5.27;4.70;;;23.60;99.90;;;;;;5047756;28;20595;-66
2022/06/04 09:02:58;;;;;;;6.07;5.30;;;23.50;99.90;;;;;;5051434;28;20549;-66
2022/06/04 09:05:51;;;;;;;6.40;4.73;;;23.20;99.90;;;;;;5050565;28;20246;-66
2022/06/04 09:08:32;;;;;;;6.43;5.83;;;23.30;99.90;;;;;;5060237;28;20263;-66
2022/06/04 09:11:05;;;;;;;6.10;4.83;;;23.10;99.90;;;;;;5052862;28;20674;-66
2022/06/04 09:13:37;;;;;;;6.67;5.30;;;23.40;99.90;;;;;;5056655;28;20232;-66
2022/06/04 09:16:15;;;;;;;8.47;5.20;;;23.30;99.90;;;;;;5051135;28;20715;-66
2022/06/04 09:18:49;;;;;;;6.30;4.80;;;23.80;99.90;;;;;;5052871;28;20239;-66
2022/06/04 09:21:17;;;;;;;5.50;5.00;;;23.50;99.90;;;;;;5053168;28;20220;-66
2022/06/04 09:23:48;;;;;;;5.93;5.33;;;23.50;99.90;;;;;;5051627;28;20216;-63
2022/06/04 09:26:27;;;;;;;7.10;6.13;;;23.60;99.90;;;;;;5054381;28;20699;-63
2022/06/04 09:29:06;;;;;;;5.20;4.70;;;23.30;99.90;;;;;;5052706;28;20622;-63
2022/06/04 09:31:44;;;;;;;6.40;5.13;;;23.60;99.90;;;;;;5054251;28;20233;-63
2022/06/04 09:34:19;;;;;;;5.90;4.50;;;23.80;99.90;;;;;;5052254;28;20246;-63
2022/06/04 09:36:48;;;;;;;7.20;5.73;;;24.10;99.90;;;;;;5054027;28;20219;-63
2022/06/04 09:39:22;;;;;;;5.77;4.70;;;24.20;99.90;;;;;;5052084;28;20236;-63
2022/06/04 09:41:54;;;;;;;7.13;4.50;;;24.20;99.90;;;;;;5052857;28;20789;-63
2022/06/04 09:44:23;;;;;;;7.50;5.13;;;24.20;99.90;;;;;;5053432;28;20272;-63
2022/06/04 09:46:56;;;;;;;5.83;4.77;;;24.20;99.90;;;;;;5058617;28;20260;-63
2022/06/04 09:49:35;;;;;;;7.30;5.13;;;24.40;99.90;;;;;;5051214;28;20656;-64
2022/06/04 09:52:23;;;;;;;5.07;4.23;;;24.70;99.90;;;;;;5053071;28;20292;-64
2022/06/04 09:54:55;;;;;;;5.83;4.37;;;25.40;99.90;;;;;;5049761;28;20222;-64
2022/06/04 09:57:29;;;;;;;6.80;5.07;;;25.60;99.90;;;;;;5053041;28;20253;-64
2022/06/04 09:59:59;;;;;;;5.80;4.77;;;25.90;99.90;;;;;;5052443;28;20224;-64
2022/06/04 10:02:29;;;;;;;5.40;4.57;;;25.70;99.90;;;;;;5053261;28;20233;-64
2022/06/04 10:05:06;;;;;;;4.50;4.10;;;25.60;99.90;;;;;;5052864;28;20237;-63
2022/06/04 10:07:36;;;;;;;21.30;16.30;;;25.40;99.90;;;;;;5049442;28;20283;-63
2022/06/04 10:10:22;;;;;;;17.57;12.10;;;25.80;99.90;;;;;;5051366;28;20229;-64
2022/06/04 10:15:41;;;;;;;8.00;5.53;;;25.30;99.90;;;;;;5053060;28;20229;-63
2022/06/04 10:18:24;;;;;;;6.17;5.30;;;25.10;99.90;;;;;;5052674;28;20236;-64
2022/06/04 10:20:57;;;;;;;5.93;5.17;;;25.30;99.90;;;;;;5051393;28;20770;-64
2022/06/04 10:23:27;;;;;;;5.70;4.83;;;25.60;99.90;;;;;;5052848;28;20230;-64
2022/06/04 10:26:29;;;;;;;7.23;4.53;;;25.70;99.90;;;;;;5053187;28;20257;-63
2022/06/04 10:29:30;;;;;;;5.40;4.20;;;26.20;99.90;;;;;;5052074;28;20623;-64
2022/06/04 10:32:07;;;;;;;6.80;5.20;;;26.10;99.90;;;;;;5043565;28;20289;-64
2022/06/04 10:34:46;;;;;;;7.47;5.63;;;26.30;99.90;;;;;;5051370;28;20258;-63
2022/06/04 10:37:29;;;;;;;7.10;6.40;;;26.10;99.90;;;;;;5052928;28;20251;-63
2022/06/04 10:40:14;;;;;;;6.50;5.10;;;25.10;99.90;;;;;;5051731;28;20288;-63
2022/06/04 10:42:51;;;;;;;5.23;4.70;;;25.00;99.90;;;;;;5049765;28;20228;-63
2022/06/04 10:45:26;;;;;;;6.50;5.43;;;25.00;99.90;;;;;;5052842;28;20313;-63
2022/06/04 10:48:02;;;;;;;6.47;5.20;;;25.50;99.90;;;;;;5053146;28;20238;-63
2022/06/04 10:51:25;;;;;;;5.43;4.90;;;25.40;99.90;;;;;;5044340;28;20318;-63
2022/06/04 10:53:40;;;;;;;5.53;4.60;;;25.60;99.90;;;;;;5051947;28;20221;-63
2022/06/04 10:56:15;;;;;;;5.80;4.83;;;25.40;99.90;;;;;;5052774;28;20235;-63
2022/06/04 10:58:50;;;;;;;5.50;4.63;;;25.70;99.90;;;;;;5052134;28;20246;-63
2022/06/04 11:01:32;;;;;;;4.67;4.17;;;25.90;99.90;;;;;;5045121;28;20229;-63
2022/06/04 11:04:12;;;;;;;5.27;4.43;;;26.50;99.90;;;;;;5051401;28;20324;-63
2022/06/04 11:06:45;;;;;;;5.73;4.83;;;26.30;99.90;;;;;;5052401;28;20286;-63
2022/06/04 11:09:18;;;;;;;5.70;4.00;;;26.20;99.90;;;;;;5051182;28;20329;-63
2022/06/04 11:11:51;;;;;;;4.90;4.30;;;25.90;99.90;;;;;;5047765;28;20231;-63
2022/06/04 11:14:28;;;;;;;7.23;4.57;;;26.20;99.90;;;;;;5051517;28;20226;-63
2022/06/04 11:17:01;;;;;;;5.00;4.10;;;26.30;99.90;;;;;;5046400;28;20230;-63
2022/06/04 11:19:35;;;;;;;5.13;4.63;;;26.20;99.90;;;;;;5050430;28;20254;-63
2022/06/04 11:22:12;;;;;;;4.90;4.30;;;26.00;99.90;;;;;;5050981;28;20227;-63
2022/06/04 11:24:49;;;;;;;6.23;4.53;;;25.90;99.90;;;;;;5052113;28;20230;-63
2022/06/04 11:27:25;;;;;;;4.27;3.87;;;25.60;99.90;;;;;;5052123;28;20262;-63
2022/06/04 11:29:55;;;;;;;4.80;4.30;;;25.90;99.90;;;;;;5050729;28;20230;-63
2022/06/04 11:32:33;;;;;;;5.53;4.33;;;26.50;99.90;;;;;;5054468;28;20243;-63
2022/06/04 11:35:29;;;;;;;4.20;3.80;;;27.10;99.70;;;;;;5050950;28;20386;-63
2022/06/04 11:38:18;;;;;;;4.40;3.70;;;26.20;99.60;;;;;;5056442;28;20223;-63
2022/06/04 11:40:56;;;;;;;5.67;4.20;;;26.30;99.90;;;;;;5040601;28;20223;-64
2022/06/04 11:43:35;;;;;;;6.50;3.90;;;26.40;99.90;;;;;;5046970;28;20230;-63
2022/06/04 11:46:23;;;;;;;4.90;4.10;;;26.70;99.90;;;;;;5052638;28;20281;-63
2022/06/04 11:49:09;;;;;;;4.87;3.67;;;27.00;99.90;;;;;;5034911;28;20235;-63
2022/06/04 11:51:58;;;;;;;5.20;3.80;;;27.00;99.70;;;;;;5055682;28;20221;-63
2022/06/04 11:54:44;;;;;;;4.60;3.83;;;26.80;99.30;;;;;;5039510;28;20251;-63
2022/06/04 11:57:22;;;;;;;4.47;4.07;;;26.80;99.80;;;;;;5055942;28;20288;-63
2022/06/04 12:00:08;;;;;;;6.17;4.47;;;26.30;99.90;;;;;;5047237;28;20764;-63
2022/06/04 12:02:45;;;;;;;4.67;4.10;;;26.10;99.90;;;;;;5051872;28;20279;-63
2022/06/04 12:05:24;;;;;;;4.13;3.73;;;25.50;99.90;;;;;;5055088;28;20602;-63
2022/06/04 12:07:54;;;;;;;4.73;4.07;;;25.30;99.90;;;;;;5049172;28;20259;-63
2022/06/04 12:10:29;;;;;;;5.23;4.13;;;25.50;99.90;;;;;;5054678;28;20628;-63
2022/06/04 12:13:09;;;;;;;5.83;4.23;;;25.60;99.90;;;;;;5055606;28;20277;-63
2022/06/04 12:15:41;;;;;;;4.77;3.80;;;25.20;99.90;;;;;;5046474;28;20227;-63
2022/06/04 12:18:23;;;;;;;4.83;4.00;;;25.20;99.90;;;;;;5055151;28;20622;-63
2022/06/04 12:26:33;;;;;;;4.97;3.87;;;25.00;99.90;;;;;;5047047;28;20305;-63
2022/06/04 12:29:19;;;;;;;5.70;4.63;;;24.90;99.90;;;;;;5053881;28;20726;-63
2022/06/04 12:31:56;;;;;;;5.40;4.13;;;24.70;99.90;;;;;;5047409;28;20366;-63
2022/06/04 12:34:27;;;;;;;5.03;3.83;;;24.70;99.90;;;;;;5054416;28;20296;-63
2022/06/04 12:36:56;;;;;;;5.07;4.10;;;24.80;99.90;;;;;;5055113;28;20272;-63
2022/06/04 12:39:28;;;;;;;4.57;4.07;;;24.50;99.90;;;;;;5053733;28;20232;-63
2022/06/04 12:41:59;;;;;;;4.97;4.20;;;24.20;99.90;;;;;;5051772;28;20224;-63
2022/06/04 12:44:31;;;;;;;5.77;4.47;;;24.00;99.90;;;;;;5054872;28;20588;-63
2022/06/04 12:47:12;;;;;;;8.37;4.47;;;24.00;99.90;;;;;;5053977;28;20275;-64
2022/06/04 12:49:52;;;;;;;5.33;4.57;;;24.00;99.90;;;;;;5045118;28;20217;-64
2022/06/04 12:52:37;;;;;;;5.43;4.37;;;23.80;99.90;;;;;;5054318;28;20232;-64
2022/06/04 12:55:23;;;;;;;6.87;4.47;;;23.40;99.90;;;;;;5054169;28;20233;-64
2022/06/04 12:57:54;;;;;;;7.60;4.70;;;23.40;99.90;;;;;;5053407;28;20704;-63
2022/06/04 13:00:37;;;;;;;5.17;4.40;;;23.40;99.90;;;;;;5051075;28;21577;-64
2022/06/04 13:03:37;;;;;;;5.43;4.73;;;23.60;99.90;;;;;;5052339;28;20594;-64
2022/06/04 13:06:22;;;;;;;6.27;4.60;;;23.60;99.90;;;;;;5053422;28;20271;-64
2022/06/04 13:09:00;;;;;;;5.27;4.10;;;23.70;99.90;;;;;;5048459;28;20221;-64
2022/06/04 13:11:50;;;;;;;5.60;4.27;;;23.60;99.90;;;;;;5053959;28;20232;-64
2022/06/04 13:14:27;;;;;;;4.63;4.20;;;23.60;99.90;;;;;;5050402;28;20260;-64
2022/06/04 13:16:59;;;;;;;5.00;3.63;;;23.60;99.90;;;;;;5054656;28;20735;-64
2022/06/04 13:20:09;;;;;;;5.93;4.23;;;23.60;99.90;;;;;;5053092;28;20319;-64
2022/06/04 13:22:47;;;;;;;4.27;3.87;;;23.60;99.90;;;;;;4987658;28;20366;-64
2022/06/04 13:25:21;;;;;;;4.27;3.87;;;23.40;99.90;;;;;;5045569;28;20233;-64
2022/06/04 13:27:53;;;;;;;4.90;4.40;;;23.40;99.90;;;;;;5053331;28;20232;-64
2022/06/04 13:30:25;;;;;;;4.67;3.73;;;23.10;99.90;;;;;;5051957;28;20282;-64
2022/06/04 13:33:06;;;;;;;6.83;4.00;;;23.00;99.90;;;;;;5053992;28;20726;-64
2022/06/04 13:35:39;;;;;;;5.90;4.60;;;23.10;99.90;;;;;;5045990;28;20228;-64
2022/06/04 13:38:11;;;;;;;5.83;4.33;;;23.10;99.90;;;;;;5050038;28;20617;-63